sensor_id;sensor_type;location;lat;lon;timestamp;pressure;altitude;pressure_sealevel;temperature;humidity
67931;BME280;63902;52.000;5.954;2023-04-01T00:00:36;98685.94;;;8.57;100.00
67931;BME280;63902;52.000;5.954;2023-04-01T00:01:37;98680.81;;;8.54;100.00
67931;BME280;63902;52.000;5.954;2023-04-01T00:02:37;98688.25;;;8.62;100.00
67931;BME280;63902;52.000;5.954;2023-04-01T00:03:38;98696.19;;;8.62;100.00
67931;BME280;63902;52.000;5.954;2023-04-01T00:04:38;98691.84;;;8.61;100.00
67931;BME280;63902;52.000;5.954;2023-04-01T00:05:39;98693.53;;;8.62;100.00
67931;BME280;63902;52.000;5.954;2023-04-01T00:06:41;98690.13;;;8.60;100.00
67931;BME280;63902;52.000;5.954;2023-04-01T00:07:42;98687.63;;;8.58;100.00
67931;BME280;63902;52.000;5.954;2023-04-01T00:08:43;98690.03;;;8.61;100.00
67931;BME280;63902;52.000;5.954;2023-04-01T00:09:43;98691.00;;;8.60;100.00
67931;BME280;63902;52.000;5.954;2023-04-01T00:10:44;98696.28;;;8.60;100.00
67931;BME280;63902;52.000;5.954;2023-04-01T00:11:44;98689.50;;;8.56;100.00
67931;BME280;63902;52.000;5.954;2023-04-01T00:12:45;98698.94;;;8.60;100.00
67931;BME280;63902;52.000;5.954;2023-04-01T00:13:45;98688.47;;;8.59;100.00
67931;BME280;63902;52.000;5.954;2023-04-01T00:14:46;98697.22;;;8.59;100.00
67931;BME280;63902;52.000;5.954;2023-04-01T00:15:47;98695.41;;;8.60;100.00
67931;BME280;63902;52.000;5.954;2023-04-01T00:16:47;98689.63;;;8.55;100.00
67931;BME280;63902;52.000;5.954;2023-04-01T00:17:48;98691.22;;;8.57;100.00
67931;BME280;63902;52.000;5.954;2023-04-01T00:18:49;98689.28;;;8.59;100.00
67931;BME280;63902;52.000;5.954;2023-04-01T00:19:50;98697.22;;;8.59;100.00
67931;BME280;63902;52.000;5.954;2023-04-01T00:20:51;98698.19;;;8.58;100.00
67931;BME280;63902;52.000;5.954;2023-04-01T00:21:53;98699.88;;;8.59;100.00
67931;BME280;63902;52.000;5.954;2023-04-01T00:22:54;98698.19;;;8.58;100.00
67931;BME280;63902;52.000;5.954;2023-04-01T00:23:54;98691.22;;;8.57;100.00
67931;BME280;63902;52.000;5.954;2023-04-01T00:24:55;98701.78;;;8.57;100.00
67931;BME280;63902;52.000;5.954;2023-04-01T00:25:56;98694.69;;;8.58;100.00
67931;BME280;63902;52.000;5.954;2023-04-01T00:26:56;98685.38;;;8.52;100.00
67931;BME280;63902;52.000;5.954;2023-04-01T00:27:57;98692.91;;;8.58;100.00
67931;BME280;63902;52.000;5.954;2023-04-01T00:28:58;98693.88;;;8.57;100.00
67931;BME280;63902;52.000;5.954;2023-04-01T00:29:58;98694.69;;;8.58;100.00
67931;BME280;63902;52.000;5.954;2023-04-01T00:31:04;98696.38;;;8.59;100.00
67931;BME280;63902;52.000;5.954;2023-04-01T00:32:04;98691.22;;;8.57;100.00
67931;BME280;63902;52.000;5.954;2023-04-01T00:33:05;98698.19;;;8.58;100.00
67931;BME280;63902;52.000;5.954;2023-04-01T00:34:05;98693.88;;;8.57;100.00
67931;BME280;63902;52.000;5.954;2023-04-01T00:35:07;98693.88;;;8.57;100.00
67931;BME280;63902;52.000;5.954;2023-04-01T00:36:09;98691.22;;;8.57;100.00
67931;BME280;63902;52.000;5.954;2023-04-01T00:37:11;98676.63;;;8.51;100.00
67931;BME280;63902;52.000;5.954;2023-04-01T00:38:12;98695.63;;;8.57;100.00
67931;BME280;63902;52.000;5.954;2023-04-01T00:39:12;98680.41;;;8.47;100.00
67931;BME280;63902;52.000;5.954;2023-04-01T00:40:23;98676.78;;;8.48;100.00
67931;BME280;63902;52.000;5.954;2023-04-01T00:41:24;98697.44;;;8.56;100.00
67931;BME280;63902;52.000;5.954;2023-04-01T00:42:25;98706.19;;;8.57;100.00
67931;BME280;63902;52.000;5.954;2023-04-01T00:43:25;98702.72;;;8.56;100.00
67931;BME280;63902;52.000;5.954;2023-04-01T00:44:28;98695.63;;;8.57;100.00
67931;BME280;63902;52.000;5.954;2023-04-01T00:45:32;98694.91;;;8.55;100.00
67931;BME280;63902;52.000;5.954;2023-04-01T00:46:33;98697.63;;;8.53;100.00
67931;BME280;63902;52.000;5.954;2023-04-01T00:47:33;98700.06;;;8.56;100.00
67931;BME280;63902;52.000;5.954;2023-04-01T00:48:35;98706.19;;;8.57;100.00
67931;BME280;63902;52.000;5.954;2023-04-01T00:49:39;98707.06;;;8.57;100.00
67931;BME280;63902;52.000;5.954;2023-04-01T00:50:43;98708.00;;;8.56;100.00
67931;BME280;63902;52.000;5.954;2023-04-01T00:51:45;98707.06;;;8.57;100.00
67931;BME280;63902;52.000;5.954;2023-04-01T00:52:48;98699.22;;;8.56;100.00
67931;BME280;63902;52.000;5.954;2023-04-01T00:53:51;98707.06;;;8.57;100.00
67931;BME280;63902;52.000;5.954;2023-04-01T00:54:57;98691.72;;;8.49;100.00
67931;BME280;63902;52.000;5.954;2023-04-01T00:56:03;98698.41;;;8.55;100.00
67931;BME280;63902;52.000;5.954;2023-04-01T00:57:06;98704.44;;;8.57;100.00
67931;BME280;63902;52.000;5.954;2023-04-01T00:58:13;98710.56;;;8.58;100.00
67931;BME280;63902;52.000;5.954;2023-04-01T00:59:17;98706.94;;;8.59;100.00
67931;BME280;63902;52.000;5.954;2023-04-01T01:00:19;98700.19;;;8.55;100.00
67931;BME280;63902;52.000;5.954;2023-04-01T01:01:20;98707.91;;;8.58;100.00
67931;BME280;63902;52.000;5.954;2023-04-01T01:02:22;98705.47;;;8.55;100.00
67931;BME280;63902;52.000;5.954;2023-04-01T01:03:22;98713.19;;;8.58;100.00
67931;BME280;63902;52.000;5.954;2023-04-01T01:04:25;98703.56;;;8.57;100.00
67931;BME280;63902;52.000;5.954;2023-04-01T01:05:33;98714.03;;;8.58;100.00
67931;BME280;63902;52.000;5.954;2023-04-01T01:06:42;98707.91;;;8.58;100.00
67931;BME280;63902;52.000;5.954;2023-04-01T01:07:55;98701.03;;;8.55;100.00
67931;BME280;63902;52.000;5.954;2023-04-01T01:09:22;98711.41;;;8.58;100.00
67931;BME280;63902;52.000;5.954;2023-04-01T01:10:29;98703.34;;;8.60;100.00
67931;BME280;63902;52.000;5.954;2023-04-01T01:11:35;98705.34;;;8.56;100.00
67931;BME280;63902;52.000;5.954;2023-04-01T01:12:40;98689.50;;;8.56;100.00
67931;BME280;63902;52.000;5.954;2023-04-01T01:13:48;98712.16;;;8.60;100.00
67931;BME280;63902;52.000;5.954;2023-04-01T01:14:56;98707.78;;;8.59;100.00
67931;BME280;63902;52.000;5.954;2023-04-01T01:16:05;98718.28;;;8.61;100.00
67931;BME280;63902;52.000;5.954;2023-04-01T01:17:13;98712.16;;;8.60;100.00
67931;BME280;63902;52.000;5.954;2023-04-01T01:18:19;98716.47;;;8.61;100.00
67931;BME280;63902;52.000;5.954;2023-04-01T01:19:40;98713.84;;;8.61;100.00
67931;BME280;63902;52.000;5.954;2023-04-01T01:21:01;98713.00;;;8.61;100.00
67931;BME280;63902;52.000;5.954;2023-04-01T01:22:22;98716.47;;;8.61;100.00
67931;BME280;63902;52.000;5.954;2023-04-01T01:23:50;98715.63;;;8.61;100.00
67931;BME280;63902;52.000;5.954;2023-04-01T01:25:08;98717.31;;;8.62;100.00
67931;BME280;63902;52.000;5.954;2023-04-01T01:27:49;98719.13;;;8.61;100.00
67931;BME280;63902;52.000;5.954;2023-04-01T01:29:01;98719.13;;;8.61;100.00
67931;BME280;63902;52.000;5.954;2023-04-01T01:30:14;98716.47;;;8.61;100.00
67931;BME280;63902;52.000;5.954;2023-04-01T01:31:20;98719.13;;;8.61;100.00
67931;BME280;63902;52.000;5.954;2023-04-01T01:32:38;98720.78;;;8.62;100.00
67931;BME280;63902;52.000;5.954;2023-04-01T01:33:53;98725.25;;;8.62;100.00
67931;BME280;63902;52.000;5.954;2023-04-01T01:35:11;98719.19;;;8.60;100.00
67931;BME280;63902;52.000;5.954;2023-04-01T01:36:15;98719.13;;;8.61;100.00
67931;BME280;63902;52.000;5.954;2023-04-01T01:37:21;98725.25;;;8.62;100.00
67931;BME280;63902;52.000;5.954;2023-04-01T01:38:24;98721.66;;;8.63;100.00
67931;BME280;63902;52.000;5.954;2023-04-01T01:39:28;98712.44;;;8.56;100.00
67931;BME280;63902;52.000;5.954;2023-04-01T01:40:31;98724.41;;;8.61;100.00
67931;BME280;63902;52.000;5.954;2023-04-01T01:41:34;98724.41;;;8.61;100.00
67931;BME280;63902;52.000;5.954;2023-04-01T01:42:37;98720.91;;;8.61;100.00
67931;BME280;63902;52.000;5.954;2023-04-01T01:43:40;98725.25;;;8.62;100.00
67931;BME280;63902;52.000;5.954;2023-04-01T01:44:44;98724.41;;;8.61;100.00
67931;BME280;63902;52.000;5.954;2023-04-01T01:45:48;98726.19;;;8.61;100.00
67931;BME280;63902;52.000;5.954;2023-04-01T01:46:49;98719.13;;;8.61;100.00
67931;BME280;63902;52.000;5.954;2023-04-01T01:47:51;98683.72;;;8.37;100.00
67931;BME280;63902;52.000;5.954;2023-04-01T01:48:53;98701.53;;;8.47;100.00
67931;BME280;63902;52.000;5.954;2023-04-01T01:49:55;98709.16;;;8.52;100.00
67931;BME280;63902;52.000;5.954;2023-04-01T01:50:58;98729.69;;;8.61;100.00
67931;BME280;63902;52.000;5.954;2023-04-01T01:51:59;98712.44;;;8.56;100.00
67931;BME280;63902;52.000;5.954;2023-04-01T01:53:02;98727.88;;;8.62;100.00
67931;BME280;63902;52.000;5.954;2023-04-01T01:54:03;98703.53;;;8.44;100.00
67931;BME280;63902;52.000;5.954;2023-04-01T01:55:24;98726.50;;;8.56;100.00
67931;BME280;63902;52.000;5.954;2023-04-01T01:56:27;98737.53;;;8.63;100.00
67931;BME280;63902;52.000;5.954;2023-04-01T01:57:33;98736.66;;;8.62;100.00
67931;BME280;63902;52.000;5.954;2023-04-01T01:58:37;98725.44;;;8.59;100.00
67931;BME280;63902;52.000;5.954;2023-04-01T01:59:39;98721.97;;;8.58;100.00
67931;BME280;63902;52.000;5.954;2023-04-01T02:00:43;98734.97;;;8.61;100.00
67931;BME280;63902;52.000;5.954;2023-04-01T02:01:49;98726.41;;;8.58;100.00
67931;BME280;63902;52.000;5.954;2023-04-01T02:02:50;98732.63;;;8.57;100.00
67931;BME280;63902;52.000;5.954;2023-04-01T02:03:52;98740.25;;;8.61;100.00
67931;BME280;63902;52.000;5.954;2023-04-01T02:04:53;98742.06;;;8.61;100.00
67931;BME280;63902;52.000;5.954;2023-04-01T02:05:56;98729.91;;;8.58;100.00
67931;BME280;63902;52.000;5.954;2023-04-01T02:07:01;98743.84;;;8.60;100.00
67931;BME280;63902;52.000;5.954;2023-04-01T02:08:06;98735.19;;;8.58;100.00
67931;BME280;63902;52.000;5.954;2023-04-01T02:09:08;98742.25;;;8.58;100.00
67931;BME280;63902;52.000;5.954;2023-04-01T02:10:10;98742.34;;;8.56;100.00
67931;BME280;63902;52.000;5.954;2023-04-01T02:11:12;98747.63;;;8.56;100.00
67931;BME280;63902;52.000;5.954;2023-04-01T02:12:14;98746.78;;;8.56;100.00
67931;BME280;63902;52.000;5.954;2023-04-01T02:13:19;98744.25;;;8.54;100.00
67931;BME280;63902;52.000;5.954;2023-04-01T02:14:23;98751.31;;;8.54;100.00
67931;BME280;63902;52.000;5.954;2023-04-01T02:15:26;98758.41;;;8.53;100.00
67931;BME280;63902;52.000;5.954;2023-04-01T02:16:32;98738.81;;;8.43;100.00
67931;BME280;63902;52.000;5.954;2023-04-01T02:17:35;98747.19;;;8.49;100.00
67931;BME280;63902;52.000;5.954;2023-04-01T02:18:39;98752.50;;;8.49;100.00
67931;BME280;63902;52.000;5.954;2023-04-01T02:19:47;98758.63;;;8.50;100.00
67931;BME280;63902;52.000;5.954;2023-04-01T02:20:49;98751.09;;;8.44;100.00
67931;BME280;63902;52.000;5.954;2023-04-01T02:21:51;98757.84;;;8.48;100.00
67931;BME280;63902;52.000;5.954;2023-04-01T02:22:56;98732.31;;;8.34;100.00
67931;BME280;63902;52.000;5.954;2023-04-01T02:23:58;98754.38;;;8.47;100.00
67931;BME280;63902;52.000;5.954;2023-04-01T02:25:04;98760.63;;;8.46;100.00
67931;BME280;63902;52.000;5.954;2023-04-01T02:26:06;98758.91;;;8.45;100.00
67931;BME280;63902;52.000;5.954;2023-04-01T02:27:09;98752.22;;;8.40;100.00
67931;BME280;63902;52.000;5.954;2023-04-01T02:28:12;98757.13;;;8.46;100.00
67931;BME280;63902;52.000;5.954;2023-04-01T02:29:14;98752.97;;;8.42;100.00
67931;BME280;63902;52.000;5.954;2023-04-01T02:30:16;98756.25;;;8.45;100.00
67931;BME280;63902;52.000;5.954;2023-04-01T02:31:17;98748.44;;;8.44;100.00
67931;BME280;63902;52.000;5.954;2023-04-01T02:32:19;98760.72;;;8.45;100.00
67931;BME280;63902;52.000;5.954;2023-04-01T02:33:20;98759.03;;;8.44;100.00
67931;BME280;63902;52.000;5.954;2023-04-01T02:34:22;98754.66;;;8.43;100.00
67931;BME280;63902;52.000;5.954;2023-04-01T02:35:23;98759.09;;;8.42;100.00
67931;BME280;63902;52.000;5.954;2023-04-01T02:36:25;98757.31;;;8.43;100.00
67931;BME280;63902;52.000;5.954;2023-04-01T02:37:25;98755.75;;;8.40;100.00
67931;BME280;63902;52.000;5.954;2023-04-01T02:38:27;98762.59;;;8.43;100.00
67931;BME280;63902;52.000;5.954;2023-04-01T02:39:28;98764.31;;;8.44;100.00
67931;BME280;63902;52.000;5.954;2023-04-01T02:40:28;98759.88;;;8.44;100.00
67931;BME280;63902;52.000;5.954;2023-04-01T02:41:30;98754.13;;;8.38;100.00
67931;BME280;63902;52.000;5.954;2023-04-01T02:42:30;98763.53;;;8.42;100.00
67931;BME280;63902;52.000;5.954;2023-04-01T02:43:31;98756.75;;;8.38;100.00
67931;BME280;63902;52.000;5.954;2023-04-01T02:44:31;98755.81;;;8.39;100.00
67931;BME280;63902;52.000;5.954;2023-04-01T02:45:32;98760.06;;;8.41;100.00
67931;BME280;63902;52.000;5.954;2023-04-01T02:46:32;98761.88;;;8.41;100.00
67931;BME280;63902;52.000;5.954;2023-04-01T02:47:33;98752.72;;;8.32;100.00
67931;BME280;63902;52.000;5.954;2023-04-01T02:48:33;98768.94;;;8.40;100.00
67931;BME280;63902;52.000;5.954;2023-04-01T02:49:34;98733.22;;;8.20;100.00
67931;BME280;63902;52.000;5.954;2023-04-01T02:50:34;98766.41;;;8.39;100.00
67931;BME280;63902;52.000;5.954;2023-04-01T02:51:35;98763.81;;;8.37;100.00
67931;BME280;63902;52.000;5.954;2023-04-01T02:52:35;98762.78;;;8.40;100.00
67931;BME280;63902;52.000;5.954;2023-04-01T02:53:37;98771.69;;;8.39;100.00
67931;BME280;63902;52.000;5.954;2023-04-01T02:54:38;98754.47;;;8.32;100.00
67931;BME280;63902;52.000;5.954;2023-04-01T02:55:38;98770.81;;;8.38;100.00
67931;BME280;63902;52.000;5.954;2023-04-01T02:56:39;98766.44;;;8.37;100.00
67931;BME280;63902;52.000;5.954;2023-04-01T02:57:39;98770.88;;;8.37;100.00
67931;BME280;63902;52.000;5.954;2023-04-01T02:58:40;98776.09;;;8.38;100.00
67931;BME280;63902;52.000;5.954;2023-04-01T02:59:40;98767.41;;;8.36;100.00
67931;BME280;63902;52.000;5.954;2023-04-01T03:00:41;98769.19;;;8.36;100.00
67931;BME280;63902;52.000;5.954;2023-04-01T03:01:41;98777.13;;;8.36;100.00
67931;BME280;63902;52.000;5.954;2023-04-01T03:02:42;98774.50;;;8.36;100.00
67931;BME280;63902;52.000;5.954;2023-04-01T03:03:42;98771.94;;;8.34;100.00
67931;BME280;63902;52.000;5.954;2023-04-01T03:04:43;98772.88;;;8.33;100.00
67931;BME280;63902;52.000;5.954;2023-04-01T03:05:43;98772.88;;;8.33;100.00
67931;BME280;63902;52.000;5.954;2023-04-01T03:06:44;98771.22;;;8.32;100.00
67931;BME280;63902;52.000;5.954;2023-04-01T03:07:45;98766.97;;;8.29;100.00
67931;BME280;63902;52.000;5.954;2023-04-01T03:08:47;98769.28;;;8.34;100.00
67931;BME280;63902;52.000;5.954;2023-04-01T03:09:47;98768.44;;;8.34;100.00
67931;BME280;63902;52.000;5.954;2023-04-01T03:10:48;98776.38;;;8.34;100.00
67931;BME280;63902;52.000;5.954;2023-04-01T03:11:48;98771.09;;;8.34;100.00
67931;BME280;63902;52.000;5.954;2023-04-01T03:12:49;98773.72;;;8.34;100.00
67931;BME280;63902;52.000;5.954;2023-04-01T03:13:49;98768.44;;;8.34;100.00
67931;BME280;63902;52.000;5.954;2023-04-01T03:14:50;98778.94;;;8.35;100.00
67931;BME280;63902;52.000;5.954;2023-04-01T03:15:51;98777.13;;;8.36;100.00
67931;BME280;63902;52.000;5.954;2023-04-01T03:16:51;98772.88;;;8.33;100.00
67931;BME280;63902;52.000;5.954;2023-04-01T03:17:52;98784.28;;;8.34;100.00
67931;BME280;63902;52.000;5.954;2023-04-01T03:18:52;98775.53;;;8.33;100.00
67931;BME280;63902;52.000;5.954;2023-04-01T03:19:53;98770.34;;;8.32;100.00
67931;BME280;63902;52.000;5.954;2023-04-01T03:20:53;98771.22;;;8.32;100.00
67931;BME280;63902;52.000;5.954;2023-04-01T03:21:53;98777.34;;;8.33;100.00
67931;BME280;63902;52.000;5.954;2023-04-01T03:22:54;98773.72;;;8.34;100.00
67931;BME280;63902;52.000;5.954;2023-04-01T03:23:56;98750.13;;;8.18;100.00
67931;BME280;63902;52.000;5.954;2023-04-01T03:24:56;98780.91;;;8.32;100.00
67931;BME280;63902;52.000;5.954;2023-04-01T03:25:57;98772.13;;;8.31;100.00
67931;BME280;63902;52.000;5.954;2023-04-01T03:26:57;98780.91;;;8.32;100.00
67931;BME280;63902;52.000;5.954;2023-04-01T03:27:58;98777.53;;;8.29;100.00
67931;BME280;63902;52.000;5.954;2023-04-01T03:28:58;98775.63;;;8.32;100.00
67931;BME280;63902;52.000;5.954;2023-04-01T03:29:59;98774.88;;;8.29;100.00
67931;BME280;63902;52.000;5.954;2023-04-01T03:30:59;98770.19;;;8.20;100.00
67931;BME280;63902;52.000;5.954;2023-04-01T03:32:00;98782.81;;;8.29;100.00
67931;BME280;63902;52.000;5.954;2023-04-01T03:33:00;98767.38;;;8.23;100.00
67931;BME280;63902;52.000;5.954;2023-04-01T03:34:01;98779.41;;;8.27;100.00
67931;BME280;63902;52.000;5.954;2023-04-01T03:35:02;98779.41;;;8.27;100.00
67931;BME280;63902;52.000;5.954;2023-04-01T03:36:03;98767.38;;;8.23;100.00
67931;BME280;63902;52.000;5.954;2023-04-01T03:37:03;98782.91;;;8.28;100.00
67931;BME280;63902;52.000;5.954;2023-04-01T03:38:04;98779.41;;;8.27;100.00
67931;BME280;63902;52.000;5.954;2023-04-01T03:39:06;98783.84;;;8.27;100.00
67931;BME280;63902;52.000;5.954;2023-04-01T03:40:07;98779.41;;;8.27;100.00
67931;BME280;63902;52.000;5.954;2023-04-01T03:41:11;98784.69;;;8.27;100.00
67931;BME280;63902;52.000;5.954;2023-04-01T03:42:12;98766.81;;;8.18;100.00
67931;BME280;63902;52.000;5.954;2023-04-01T03:43:12;98783.94;;;8.25;100.00
67931;BME280;63902;52.000;5.954;2023-04-01T03:44:13;98777.19;;;8.21;100.00
67931;BME280;63902;52.000;5.954;2023-04-01T03:45:14;98767.53;;;8.20;100.00
67931;BME280;63902;52.000;5.954;2023-04-01T03:46:17;98786.59;;;8.25;100.00
67931;BME280;63902;52.000;5.954;2023-04-01T03:47:17;98787.53;;;8.24;100.00
67931;BME280;63902;52.000;5.954;2023-04-01T03:48:18;98784.25;;;8.21;100.00
67931;BME280;63902;52.000;5.954;2023-04-01T03:49:19;98781.41;;;8.24;100.00
67931;BME280;63902;52.000;5.954;2023-04-01T03:50:19;98786.69;;;8.24;100.00
67931;BME280;63902;52.000;5.954;2023-04-01T03:51:19;98781.50;;;8.22;100.00
67931;BME280;63902;52.000;5.954;2023-04-01T03:52:20;98796.50;;;8.22;100.00
67931;BME280;63902;52.000;5.954;2023-04-01T03:53:21;98790.38;;;8.21;100.00
67931;BME280;63902;52.000;5.954;2023-04-01T03:54:23;98790.38;;;8.21;100.00
67931;BME280;63902;52.000;5.954;2023-04-01T03:55:23;98778.31;;;8.17;100.00
67931;BME280;63902;52.000;5.954;2023-04-01T03:56:24;98793.03;;;8.21;100.00
67931;BME280;63902;52.000;5.954;2023-04-01T03:57:24;98794.81;;;8.21;100.00
67931;BME280;63902;52.000;5.954;2023-04-01T03:58:25;98786.13;;;8.19;100.00
67931;BME280;63902;52.000;5.954;2023-04-01T03:59:25;98791.31;;;8.20;100.00
67931;BME280;63902;52.000;5.954;2023-04-01T04:00:26;98778.63;;;8.13;100.00
67931;BME280;63902;52.000;5.954;2023-04-01T04:01:26;98794.91;;;8.19;100.00
67931;BME280;63902;52.000;5.954;2023-04-01T04:02:27;98794.06;;;8.19;100.00
67931;BME280;63902;52.000;5.954;2023-04-01T04:03:27;98791.41;;;8.19;100.00
67931;BME280;63902;52.000;5.954;2023-04-01T04:04:28;98792.25;;;8.19;100.00
67931;BME280;63902;52.000;5.954;2023-04-01T04:05:28;98784.94;;;8.10;100.00
67931;BME280;63902;52.000;5.954;2023-04-01T04:06:29;98790.56;;;8.18;100.00
67931;BME280;63902;52.000;5.954;2023-04-01T04:07:29;98788.88;;;8.17;100.00
67931;BME280;63902;52.000;5.954;2023-04-01T04:08:30;98762.59;;;8.01;100.00
67931;BME280;63902;52.000;5.954;2023-04-01T04:09:32;98795.03;;;8.18;100.00
67931;BME280;63902;52.000;5.954;2023-04-01T04:10:32;98796.78;;;8.17;100.00
67931;BME280;63902;52.000;5.954;2023-04-01T04:11:33;98798.59;;;8.17;100.00
67931;BME280;63902;52.000;5.954;2023-04-01T04:12:33;98789.06;;;8.14;100.00
67931;BME280;63902;52.000;5.954;2023-04-01T04:13:34;98783.97;;;8.11;100.00
67931;BME280;63902;52.000;5.954;2023-04-01T04:14:34;98797.75;;;8.16;100.00
67931;BME280;63902;52.000;5.954;2023-04-01T04:15:35;98792.84;;;8.10;100.00
67931;BME280;63902;52.000;5.954;2023-04-01T04:16:36;98796.22;;;8.12;100.00
67931;BME280;63902;52.000;5.954;2023-04-01T04:17:36;98809.25;;;8.15;100.00
67931;BME280;63902;52.000;5.954;2023-04-01T04:18:37;98800.66;;;8.12;100.00
67931;BME280;63902;52.000;5.954;2023-04-01T04:19:37;98804.91;;;8.14;100.00
67931;BME280;63902;52.000;5.954;2023-04-01T04:20:44;98807.53;;;8.14;100.00
67931;BME280;63902;52.000;5.954;2023-04-01T04:21:44;98807.53;;;8.14;100.00
67931;BME280;63902;52.000;5.954;2023-04-01T04:22:45;98804.91;;;8.14;100.00
67931;BME280;63902;52.000;5.954;2023-04-01T04:23:45;98809.34;;;8.14;100.00
67931;BME280;63902;52.000;5.954;2023-04-01T04:24:47;98808.50;;;8.13;100.00
67931;BME280;63902;52.000;5.954;2023-04-01T04:25:55;98806.78;;;8.12;100.00
67931;BME280;63902;52.000;5.954;2023-04-01T04:26:56;98798.41;;;8.05;100.00
67931;BME280;63902;52.000;5.954;2023-04-01T04:27:57;98800.84;;;8.08;100.00
67931;BME280;63902;52.000;5.954;2023-04-01T04:28:58;98800.78;;;8.10;100.00
67931;BME280;63902;52.000;5.954;2023-04-01T04:29:58;98815.59;;;8.13;100.00
67931;BME280;63902;52.000;5.954;2023-04-01T04:30:59;98810.28;;;8.13;100.00
67931;BME280;63902;52.000;5.954;2023-04-01T04:31:59;98811.22;;;8.12;100.00
67931;BME280;63902;52.000;5.954;2023-04-01T04:33:00;98807.09;;;8.07;100.00
67931;BME280;63902;52.000;5.954;2023-04-01T04:34:01;98798.53;;;8.04;100.00
67931;BME280;63902;52.000;5.954;2023-04-01T04:35:01;98815.66;;;8.11;100.00
67931;BME280;63902;52.000;5.954;2023-04-01T04:36:03;98806.13;;;8.08;100.00
67931;BME280;63902;52.000;5.954;2023-04-01T04:37:04;98813.97;;;8.10;100.00
67931;BME280;63902;52.000;5.954;2023-04-01T04:38:04;98811.34;;;8.10;100.00
67931;BME280;63902;52.000;5.954;2023-04-01T04:39:05;98815.78;;;8.10;100.00
67931;BME280;63902;52.000;5.954;2023-04-01T04:40:08;98814.81;;;8.11;100.00
67931;BME280;63902;52.000;5.954;2023-04-01T04:41:09;98814.81;;;8.11;100.00
67931;BME280;63902;52.000;5.954;2023-04-01T04:42:10;98810.50;;;8.10;100.00
67931;BME280;63902;52.000;5.954;2023-04-01T04:43:12;98813.31;;;8.06;100.00
67931;BME280;63902;52.000;5.954;2023-04-01T04:44:13;98818.41;;;8.10;100.00
67931;BME280;63902;52.000;5.954;2023-04-01T04:45:14;98813.22;;;8.08;100.00
67931;BME280;63902;52.000;5.954;2023-04-01T04:46:14;98816.69;;;8.08;100.00
67931;BME280;63902;52.000;5.954;2023-04-01T04:47:15;98799.84;;;7.97;100.00
67931;BME280;63902;52.000;5.954;2023-04-01T04:48:16;98815.84;;;8.08;100.00
67931;BME280;63902;52.000;5.954;2023-04-01T04:49:17;98820.28;;;8.07;100.00
67931;BME280;63902;52.000;5.954;2023-04-01T04:50:17;98815.94;;;8.06;100.00
67931;BME280;63902;52.000;5.954;2023-04-01T04:51:19;98817.53;;;8.09;100.00
67931;BME280;63902;52.000;5.954;2023-04-01T04:52:19;98815.84;;;8.08;100.00
67931;BME280;63902;52.000;5.954;2023-04-01T04:53:20;98813.50;;;8.03;100.00
67931;BME280;63902;52.000;5.954;2023-04-01T04:54:20;98817.75;;;8.06;100.00
67931;BME280;63902;52.000;5.954;2023-04-01T04:55:22;98817.75;;;8.06;100.00
67931;BME280;63902;52.000;5.954;2023-04-01T04:56:22;98821.13;;;8.08;100.00
67931;BME280;63902;52.000;5.954;2023-04-01T04:57:23;98823.03;;;8.06;100.00
67931;BME280;63902;52.000;5.954;2023-04-01T04:58:24;98833.38;;;8.09;100.00
67931;BME280;63902;52.000;5.954;2023-04-01T04:59:24;98826.41;;;8.08;100.00
67931;BME280;63902;52.000;5.954;2023-04-01T05:00:25;98827.19;;;8.10;100.00
67931;BME280;63902;52.000;5.954;2023-04-01T05:01:25;98829.81;;;8.10;100.00
67931;BME280;63902;52.000;5.954;2023-04-01T05:02:26;98831.69;;;8.08;100.00
67931;BME280;63902;52.000;5.954;2023-04-01T05:03:26;98807.97;;;7.94;100.00
67931;BME280;63902;52.000;5.954;2023-04-01T05:04:27;98839.53;;;8.10;100.00
67931;BME280;63902;52.000;5.954;2023-04-01T05:05:27;98839.53;;;8.10;100.00
67931;BME280;63902;52.000;5.954;2023-04-01T05:06:28;98829.13;;;8.06;100.00
67931;BME280;63902;52.000;5.954;2023-04-01T05:07:29;98833.38;;;8.09;100.00
67931;BME280;63902;52.000;5.954;2023-04-01T05:08:29;98834.34;;;8.08;100.00
67931;BME280;63902;52.000;5.954;2023-04-01T05:09:30;98823.31;;;8.01;100.00
67931;BME280;63902;52.000;5.954;2023-04-01T05:10:31;98839.53;;;8.10;100.00
67931;BME280;63902;52.000;5.954;2023-04-01T05:11:32;98830.09;;;8.05;100.00
67931;BME280;63902;52.000;5.954;2023-04-01T05:12:32;98840.38;;;8.10;100.00
67931;BME280;63902;52.000;5.954;2023-04-01T05:13:33;98847.34;;;8.11;100.00
67931;BME280;63902;52.000;5.954;2023-04-01T05:14:34;98841.22;;;8.11;100.00
67931;BME280;63902;52.000;5.954;2023-04-01T05:15:35;98847.34;;;8.11;100.00
67931;BME280;63902;52.000;5.954;2023-04-01T05:16:35;98845.66;;;8.10;100.00
67931;BME280;63902;52.000;5.954;2023-04-01T05:17:36;98839.63;;;8.08;100.00
67931;BME280;63902;52.000;5.954;2023-04-01T05:18:36;98840.38;;;8.10;100.00
67931;BME280;63902;52.000;5.954;2023-04-01T05:19:37;98847.34;;;8.11;100.00
67931;BME280;63902;52.000;5.954;2023-04-01T05:20:37;98852.63;;;8.11;100.00
67931;BME280;63902;52.000;5.954;2023-04-01T05:21:38;98848.19;;;8.12;100.00
67931;BME280;63902;52.000;5.954;2023-04-01T05:22:39;98848.19;;;8.12;100.00
67931;BME280;63902;52.000;5.954;2023-04-01T05:23:39;98856.13;;;8.12;100.00
67931;BME280;63902;52.000;5.954;2023-04-01T05:24:39;98856.03;;;8.13;100.00
67931;BME280;63902;52.000;5.954;2023-04-01T05:25:42;98851.69;;;8.12;100.00
67931;BME280;63902;52.000;5.954;2023-04-01T05:26:43;98856.88;;;8.14;100.00
67931;BME280;63902;52.000;5.954;2023-04-01T05:27:43;98860.34;;;8.14;100.00
67931;BME280;63902;52.000;5.954;2023-04-01T05:28:43;98858.56;;;8.15;100.00
67931;BME280;63902;52.000;5.954;2023-04-01T05:29:44;98836.53;;;8.01;100.00
67931;BME280;63902;52.000;5.954;2023-04-01T05:30:45;98861.13;;;8.16;100.00
67931;BME280;63902;52.000;5.954;2023-04-01T05:31:46;98861.13;;;8.16;100.00